Aeroporto :
LOGIN :

Iscrizione | Disclaimer

   EN    FR    IT 

 










Sommario :    VFR   VFR Marginale   IFR   IFR Intensivo   IFR Molto Intensivo
Visibilità : 
Base nubi : 
>= 8 km
>= 3000ft
5 / 8 km
1000 / 3000 ft
1500m / 5 km
500 / 1000 ft
800 / 1500m
200 / 500 ft
< 800m
< 200 ft
Simboli :   Temporali  Nebbia  Neve Forte  Precipitazioni Forti  Vento > 20 kt
SIGMETs :   Varie  Temporali  Ghiacco  Turbolenza  Onda orograficha  Ceneri Vulcaniche






- Altitudine del aeroporto : 341 ft


EPMO - Modlin

ULTIMO METAR :
  • 270430Z 25008KT 4200 -RA BR BKN004 12/12 Q0996

METARs OBSOLETI :
  • 270400Z 25010KT 220V280 3500 -RA BR OVC005 13/13 Q0996
  • 270330Z 21006KT 180V240 4300 -RA BR OVC004 13/13 Q0996
  • 270300Z 23007KT 180V250 6000 -RA OVC005 13/13 Q0996
  • 270230Z 21007KT 4200 -RA BR OVC004 13/13 Q0996
  • 270200Z 24007KT 5000 -RA BR OVC003 14/14 Q0995

TAF TAF EPMO
Valido dal 27 a 00 ore il 28 a 00 ore UTC


262330Z 2700/2724 VRB02KT 9999 -RA BKN007
TEMPO 2700/2706 3000 RA BR BKN003
BECMG 2705/2707 26012KT
TEMPO 2706/2712 26018G30KT BKN012
BECMG 2709/2711 BKN011
BECMG 2712/2715 BKN020
BECMG 2715/2717 18005KT



MetMap, La meteo Aeronautica in un colpo d'occhio ! - Copyright ORBIFLY Dicembre 2007 - Disclaimer

ORBIFLY MET'MAP TEAM :

Programmazione e sviluppo : Alexandra Zaïnal
Concezione : Baudouin d'Aumeries
Aiuto per la programmazione : Marc-Olivier Méhu
Supporto tecnico e logistico : Manuel Goepfert
Aiuto per la traduzione : Arnaldo La Scala

Contatto : metmap@orbifly.com




FONTI E CREDITI :

   NOAA